createdAt,value
2017-11-05T00:01:01.167Z,84.37
2017-11-05T00:03:28.571Z,84.53
2017-11-05T00:05:55.980Z,85.16
2017-11-05T00:08:23.367Z,85.09
2017-11-05T00:10:50.830Z,85.44
2017-11-05T00:13:18.295Z,84.99
2017-11-05T00:15:45.701Z,84.76
2017-11-05T00:18:13.121Z,85.59
2017-11-05T00:20:40.523Z,85.59
2017-11-05T00:23:07.920Z,85.64
2017-11-05T00:25:35.324Z,84.97
2017-11-05T00:28:02.743Z,84.57
2017-11-05T00:30:30.155Z,85.16
2017-11-05T00:32:57.555Z,84.86
2017-11-05T00:35:24.951Z,84.53
2017-11-05T00:37:52.339Z,84.35
2017-11-05T00:40:19.823Z,83.96
2017-11-05T00:42:47.215Z,84.39
2017-11-05T00:45:14.607Z,84.82
2017-11-05T00:47:42.086Z,84.33
2017-11-05T00:50:09.556Z,83.16
2017-11-05T00:52:37.009Z,82.80
2017-11-05T00:55:04.394Z,83.30
2017-11-05T00:57:31.791Z,82.90
2017-11-05T00:59:59.184Z,82.40
2017-11-05T01:02:26.587Z,82.18
2017-11-05T01:04:53.974Z,82.07
2017-11-05T01:07:21.453Z,81.99
2017-11-05T01:09:48.824Z,81.83
2017-11-05T01:12:16.215Z,81.79
2017-11-05T01:14:43.706Z,81.74
2017-11-05T01:17:11.167Z,81.44
2017-11-05T01:19:38.558Z,80.93
2017-11-05T01:22:05.968Z,81.01
2017-11-05T01:24:33.360Z,80.84
2017-11-05T01:27:00.784Z,80.40
2017-11-05T01:29:28.179Z,81.00
2017-11-05T01:31:55.590Z,81.21
2017-11-05T01:34:22.989Z,81.12
2017-11-05T01:36:50.388Z,81.56
2017-11-05T01:39:17.799Z,81.58
2017-11-05T01:41:45.376Z,81.56
2017-11-05T01:44:12.788Z,81.51
2017-11-05T01:46:40.166Z,81.71
2017-11-05T01:49:07.647Z,81.90
2017-11-05T01:51:35.106Z,81.57
2017-11-05T01:54:02.681Z,81.23
2017-11-05T01:56:30.138Z,81.83
2017-11-05T01:58:57.512Z,82.55
2017-11-05T02:01:24.902Z,82.05
2017-11-05T02:03:52.305Z,82.37
2017-11-05T02:06:19.742Z,82.86
2017-11-05T02:08:47.134Z,83.32
2017-11-05T02:11:14.522Z,82.70
2017-11-05T02:13:42.015Z,82.45
2017-11-05T02:16:09.461Z,81.83
2017-11-05T02:18:36.931Z,82.40
2017-11-05T02:21:04.316Z,82.31
2017-11-05T02:23:31.715Z,82.59
2017-11-05T02:25:59.118Z,82.80
2017-11-05T02:28:26.517Z,82.78
2017-11-05T02:30:54.092Z,82.76
2017-11-05T02:33:21.487Z,82.34
2017-11-05T02:35:48.880Z,82.10
2017-11-05T02:38:16.337Z,82.53
2017-11-05T02:40:43.731Z,83.09
2017-11-05T02:43:11.127Z,83.29
2017-11-05T02:45:38.511Z,82.71
2017-11-05T02:48:05.967Z,82.66
2017-11-05T02:50:33.368Z,82.32
2017-11-05T02:53:00.779Z,82.30
2017-11-05T02:55:28.236Z,81.98
2017-11-05T02:57:55.638Z,82.30
2017-11-05T03:00:23.036Z,81.51
2017-11-05T03:02:50.452Z,81.30
2017-11-05T03:05:17.873Z,80.98
2017-11-05T03:07:45.362Z,81.38
2017-11-05T03:10:12.764Z,80.98
2017-11-05T03:12:40.191Z,80.91
2017-11-05T03:15:07.583Z,80.36
2017-11-05T03:17:34.979Z,79.77
2017-11-05T03:20:02.375Z,80.12
2017-11-05T03:22:29.796Z,79.90
2017-11-05T03:24:57.189Z,79.73
2017-11-05T03:27:24.587Z,80.23
2017-11-05T03:29:52.066Z,80.21
2017-11-05T03:32:19.483Z,80.84
2017-11-05T03:34:46.883Z,81.01
2017-11-05T03:37:14.331Z,80.50
2017-11-05T03:39:41.714Z,80.33
2017-11-05T03:42:09.139Z,80.98
2017-11-05T03:44:36.599Z,81.86
2017-11-05T03:47:04.000Z,82.85
2017-11-05T03:49:31.391Z,82.58
2017-11-05T03:51:58.791Z,82.08
2017-11-05T03:54:26.187Z,81.71
2017-11-05T03:56:53.578Z,81.39
2017-11-05T03:59:20.971Z,81.61
2017-11-05T04:01:48.434Z,81.64
2017-11-05T04:04:15.845Z,82.29
2017-11-05T04:06:43.242Z,81.99
2017-11-05T04:09:10.627Z,82.45
2017-11-05T04:11:38.023Z,81.88
2017-11-05T04:14:05.415Z,81.22
2017-11-05T04:16:32.919Z,80.33
2017-11-05T04:19:00.302Z,79.59
2017-11-05T04:21:27.731Z,79.33
2017-11-05T04:23:55.119Z,79.65
2017-11-05T04:26:22.664Z,79.61
2017-11-05T04:28:50.100Z,79.51
2017-11-05T04:31:17.497Z,80.39
2017-11-05T04:33:44.890Z,80.41
2017-11-05T04:36:12.367Z,79.89
2017-11-05T04:38:39.767Z,80.25
2017-11-05T04:41:07.161Z,80.19
2017-11-05T04:43:34.627Z,80.00
2017-11-05T04:46:02.090Z,80.02
2017-11-05T04:48:29.483Z,79.54
2017-11-05T04:50:56.915Z,79.35
2017-11-05T04:53:24.304Z,78.96
2017-11-05T04:55:51.701Z,79.12
2017-11-05T04:58:19.081Z,78.93
2017-11-05T05:00:46.529Z,79.04
2017-11-05T05:03:13.914Z,79.00
2017-11-05T05:05:41.302Z,78.71
2017-11-05T05:08:08.692Z,79.00
2017-11-05T05:10:36.088Z,78.87
2017-11-05T05:13:03.497Z,79.52
2017-11-05T05:15:30.874Z,79.54
2017-11-05T05:17:58.325Z,79.19
2017-11-05T05:20:25.766Z,79.72
2017-11-05T05:22:53.154Z,80.09
2017-11-05T05:25:20.542Z,80.02
2017-11-05T05:27:47.929Z,80.44
2017-11-05T05:30:15.383Z,81.26
2017-11-05T05:32:42.861Z,80.78
2017-11-05T05:35:10.238Z,80.54
2017-11-05T05:37:37.650Z,80.80
2017-11-05T05:40:05.063Z,81.47
2017-11-05T05:42:32.446Z,81.10
2017-11-05T05:44:59.887Z,81.31
2017-11-05T05:47:27.270Z,81.12
2017-11-05T05:49:54.659Z,80.87
2017-11-05T05:52:22.038Z,80.57
2017-11-05T05:54:50.410Z,80.33
2017-11-05T05:57:17.834Z,79.83
2017-11-05T05:59:45.231Z,79.36
2017-11-05T06:02:12.626Z,78.91
2017-11-05T06:04:40.127Z,78.63
2017-11-05T06:07:07.498Z,78.78
2017-11-05T06:09:34.914Z,79.15
2017-11-05T06:12:02.299Z,78.78
2017-11-05T06:14:29.730Z,78.69
2017-11-05T06:16:59.021Z,78.46
2017-11-05T06:19:26.507Z,78.47
2017-11-05T06:21:53.896Z,78.27
2017-11-05T06:24:21.299Z,78.13
2017-11-05T06:26:48.683Z,78.04
2017-11-05T06:29:16.103Z,77.85
2017-11-05T06:31:43.502Z,77.64
2017-11-05T06:34:10.919Z,77.45
2017-11-05T06:36:38.374Z,77.57
2017-11-05T06:39:05.762Z,77.50
2017-11-05T06:41:33.154Z,77.46
2017-11-05T06:44:00.539Z,77.64
2017-11-05T06:46:27.928Z,77.69
2017-11-05T06:48:55.346Z,77.81
2017-11-05T06:51:22.744Z,77.79
2017-11-05T06:53:50.167Z,77.82
2017-11-05T06:56:17.590Z,77.75
2017-11-05T06:58:44.972Z,77.58
2017-11-05T07:01:12.455Z,77.87
2017-11-05T07:03:39.844Z,78.42
2017-11-05T07:06:07.297Z,78.66
2017-11-05T07:08:34.763Z,79.21
2017-11-05T07:11:02.208Z,79.79
2017-11-05T07:13:29.658Z,79.95
2017-11-05T07:15:57.174Z,80.42
2017-11-05T07:18:24.670Z,80.88
2017-11-05T07:20:52.067Z,80.67
2017-11-05T07:23:19.582Z,81.32
2017-11-05T07:25:47.063Z,80.81
2017-11-05T07:28:14.442Z,82.17
2017-11-05T07:30:41.858Z,82.82
2017-11-05T07:33:09.267Z,82.32
2017-11-05T07:35:36.710Z,82.85
2017-11-05T07:38:04.126Z,82.97
2017-11-05T07:40:31.578Z,83.66
2017-11-05T07:42:58.966Z,85.00
2017-11-05T07:45:26.363Z,85.33
2017-11-05T07:47:53.851Z,84.83
2017-11-05T07:50:21.307Z,85.08
2017-11-05T07:52:48.756Z,83.93
2017-11-05T07:55:16.231Z,83.62
2017-11-05T07:57:43.640Z,83.26
2017-11-05T08:00:11.027Z,82.91
2017-11-05T08:02:38.486Z,82.50
2017-11-05T08:05:05.859Z,82.11
2017-11-05T08:07:33.293Z,82.33
2017-11-05T08:10:00.685Z,82.02
2017-11-05T08:12:28.098Z,81.77
2017-11-05T08:14:55.487Z,81.71
2017-11-05T08:17:22.875Z,81.48
2017-11-05T08:19:50.275Z,81.56
2017-11-05T08:22:17.691Z,82.18
2017-11-05T08:24:45.089Z,81.80
2017-11-05T08:27:12.559Z,81.13
2017-11-05T08:29:40.308Z,81.04
2017-11-05T08:32:07.764Z,80.71
2017-11-05T08:34:35.161Z,80.30
2017-11-05T08:37:02.575Z,79.47
2017-11-05T08:39:29.963Z,80.68
2017-11-05T08:41:57.467Z,81.83
2017-11-05T08:44:24.859Z,81.58
2017-11-05T08:46:52.254Z,82.43
2017-11-05T08:49:19.643Z,83.45
2017-11-05T08:51:47.032Z,83.33
2017-11-05T08:54:14.460Z,83.31
2017-11-05T08:56:41.919Z,83.41
2017-11-05T08:59:09.306Z,82.56
2017-11-05T09:01:36.728Z,81.97
2017-11-05T09:04:04.119Z,82.16
2017-11-05T09:06:31.538Z,82.19
2017-11-05T09:08:58.942Z,82.41
2017-11-05T09:11:26.342Z,82.79
2017-11-05T09:13:53.806Z,82.59
2017-11-05T09:16:21.291Z,82.75
2017-11-05T09:18:48.688Z,83.39
2017-11-05T09:21:16.074Z,82.62
2017-11-05T09:23:43.554Z,82.84
2017-11-05T09:26:10.959Z,83.76
2017-11-05T09:28:38.373Z,84.10
2017-11-05T09:31:05.830Z,83.56
2017-11-05T09:33:33.227Z,83.26
2017-11-05T09:36:00.653Z,83.04
2017-11-05T09:38:28.122Z,83.01
2017-11-05T09:40:55.502Z,82.68
2017-11-05T09:43:23.045Z,83.10
2017-11-05T09:45:50.629Z,82.85
2017-11-05T09:48:18.145Z,82.83
2017-11-05T09:50:45.712Z,82.66
2017-11-05T09:53:13.233Z,83.01
2017-11-05T09:55:40.783Z,83.34
2017-11-05T09:58:08.226Z,82.99
2017-11-05T10:00:35.804Z,83.17
2017-11-05T10:03:03.373Z,83.42
2017-11-05T10:08:21.467Z,83.49
2017-11-05T10:10:48.956Z,83.17
2017-11-05T10:13:16.508Z,83.24
2017-11-05T10:15:43.961Z,83.07
2017-11-05T10:18:11.491Z,82.34
2017-11-05T10:20:38.911Z,81.89
2017-11-05T10:23:06.297Z,82.42
2017-11-05T10:25:33.681Z,82.57
2017-11-05T10:28:01.133Z,82.41
2017-11-05T10:30:28.523Z,82.78
2017-11-05T10:32:55.998Z,82.85
2017-11-05T10:35:23.454Z,81.82
2017-11-05T10:37:50.868Z,81.64
2017-11-05T10:40:18.278Z,81.74
2017-11-05T10:42:45.667Z,81.70
2017-11-05T10:45:13.055Z,82.64
2017-11-05T10:47:40.539Z,82.35
2017-11-05T10:50:07.922Z,82.26
2017-11-05T10:52:35.346Z,82.69
2017-11-05T10:55:02.736Z,81.79
2017-11-05T10:57:30.132Z,82.49
2017-11-05T10:59:57.502Z,81.66
2017-11-05T11:02:24.967Z,81.75
2017-11-05T11:04:52.360Z,81.77
2017-11-05T11:07:19.778Z,81.64
2017-11-05T11:09:47.243Z,82.08
2017-11-05T11:12:14.632Z,81.60
2017-11-05T11:14:42.023Z,81.05
2017-11-05T11:17:09.506Z,80.86
2017-11-05T11:19:36.882Z,81.21
2017-11-05T11:22:04.320Z,82.16
2017-11-05T11:24:31.775Z,81.67
2017-11-05T11:26:59.154Z,81.55
2017-11-05T11:29:26.598Z,81.09
2017-11-05T11:31:53.990Z,81.99
2017-11-05T11:34:21.507Z,82.42
2017-11-05T11:36:48.959Z,83.22
2017-11-05T11:39:16.342Z,82.51
2017-11-05T11:41:43.734Z,82.02
2017-11-05T11:44:11.227Z,81.40
2017-11-05T11:46:38.685Z,81.76
2017-11-05T11:49:06.091Z,80.98
2017-11-05T11:51:33.490Z,81.52
2017-11-05T11:54:00.934Z,80.69
2017-11-05T11:56:28.319Z,81.64
2017-11-05T11:58:55.761Z,81.52
2017-11-05T12:01:23.217Z,81.75
2017-11-05T12:03:50.605Z,80.92
2017-11-05T12:06:18.022Z,80.52
2017-11-05T12:08:45.414Z,81.29
2017-11-05T12:11:12.807Z,81.50
2017-11-05T12:13:40.191Z,81.62
2017-11-05T12:16:07.646Z,82.09
2017-11-05T12:18:35.020Z,81.70
2017-11-05T12:21:02.407Z,81.70
2017-11-05T12:23:29.797Z,81.32
2017-11-05T12:25:57.265Z,80.61
2017-11-05T12:28:24.731Z,80.04
2017-11-05T12:30:52.187Z,80.74
2017-11-05T12:33:19.579Z,78.80
2017-11-05T12:35:46.966Z,78.67
2017-11-05T12:38:14.442Z,78.69
2017-11-05T12:40:41.902Z,79.19
2017-11-05T12:43:09.287Z,78.91
2017-11-05T12:45:36.678Z,78.46
2017-11-05T12:48:04.099Z,77.64
2017-11-05T12:50:31.495Z,77.21
2017-11-05T12:52:58.902Z,77.88
2017-11-05T12:55:26.290Z,77.96
2017-11-05T12:57:53.679Z,77.34
2017-11-05T13:00:21.078Z,78.17
2017-11-05T13:02:48.461Z,77.30
2017-11-05T13:05:15.923Z,77.23
2017-11-05T13:07:43.304Z,76.80
2017-11-05T13:10:10.695Z,76.72
2017-11-05T13:12:38.145Z,77.28
2017-11-05T13:15:05.532Z,76.96
2017-11-05T13:17:32.930Z,76.65
2017-11-05T13:20:00.410Z,76.46
2017-11-05T13:22:27.802Z,76.49
2017-11-05T13:24:55.191Z,76.55
2017-11-05T13:27:22.683Z,75.93
2017-11-05T13:29:50.142Z,76.36
2017-11-05T13:32:17.534Z,77.63
2017-11-05T13:34:44.916Z,77.22
2017-11-05T13:37:12.306Z,76.58
2017-11-05T13:39:39.686Z,77.58
2017-11-05T13:42:07.082Z,76.87
2017-11-05T13:44:34.474Z,75.90
2017-11-05T13:47:01.862Z,77.42
2017-11-05T13:49:29.247Z,76.01
2017-11-05T13:51:56.734Z,77.13
2017-11-05T13:54:24.139Z,76.94
2017-11-05T13:56:51.512Z,75.90
2017-11-05T13:59:18.903Z,75.60
2017-11-05T14:01:46.299Z,75.87
2017-11-05T14:04:13.682Z,76.13
2017-11-05T14:06:41.086Z,76.78
2017-11-05T14:09:08.474Z,76.41
2017-11-05T14:11:35.874Z,76.35
2017-11-05T14:14:03.290Z,76.18
2017-11-05T14:16:30.658Z,75.78
2017-11-05T14:18:58.046Z,75.83
2017-11-05T14:21:25.430Z,76.37
2017-11-05T14:23:52.862Z,76.56
2017-11-05T14:26:20.247Z,76.74
2017-11-05T14:28:47.824Z,76.51
2017-11-05T14:31:15.215Z,76.33
2017-11-05T14:33:42.614Z,76.13
2017-11-05T14:36:09.998Z,75.59
2017-11-05T14:38:37.408Z,76.48
2017-11-05T14:41:04.871Z,77.21
2017-11-05T14:43:32.275Z,76.57
2017-11-05T14:45:59.658Z,76.45
2017-11-05T14:48:27.053Z,77.38
2017-11-05T14:50:54.434Z,77.31
2017-11-05T14:53:21.891Z,76.48
2017-11-05T14:55:49.355Z,76.73
2017-11-05T14:58:16.820Z,76.47
2017-11-05T15:00:44.210Z,76.41
2017-11-05T15:03:11.634Z,77.01
2017-11-05T15:05:39.070Z,76.07
2017-11-05T15:08:06.558Z,75.60
2017-11-05T15:10:34.059Z,75.25
2017-11-05T15:13:01.564Z,74.43
2017-11-05T15:15:29.003Z,75.15
2017-11-05T15:17:56.462Z,75.96
2017-11-05T15:20:23.869Z,76.05
2017-11-05T15:22:51.287Z,76.79
2017-11-05T15:25:18.679Z,76.38
2017-11-05T15:27:46.086Z,76.67
2017-11-05T15:30:13.471Z,76.64
2017-11-05T15:32:40.887Z,76.53
2017-11-05T15:35:08.293Z,76.35
2017-11-05T15:37:35.675Z,76.31
2017-11-05T15:40:03.082Z,77.01
2017-11-05T15:42:30.474Z,76.93
2017-11-05T15:44:57.906Z,76.97
2017-11-05T15:47:25.289Z,76.93
2017-11-05T15:49:52.726Z,77.01
2017-11-05T15:52:20.110Z,76.90
2017-11-05T15:54:47.552Z,76.83
2017-11-05T15:57:14.971Z,76.81
2017-11-05T15:59:42.370Z,76.53
2017-11-05T16:02:09.814Z,76.78
2017-11-05T16:04:37.198Z,76.93
2017-11-05T16:07:04.604Z,76.95
2017-11-05T16:09:31.999Z,76.65
2017-11-05T16:11:59.443Z,77.41
2017-11-05T16:14:26.844Z,77.02
2017-11-05T16:16:54.292Z,76.50
2017-11-05T16:19:21.675Z,75.95
2017-11-05T16:21:49.063Z,76.26
2017-11-05T16:24:16.515Z,76.76
2017-11-05T16:26:43.894Z,77.16
2017-11-05T16:29:11.311Z,76.92
2017-11-05T16:31:38.702Z,77.09
2017-11-05T16:34:06.157Z,77.40
2017-11-05T16:36:33.599Z,77.48
2017-11-05T16:39:00.979Z,77.24
2017-11-05T16:41:28.475Z,76.92
2017-11-05T16:43:55.874Z,77.30
2017-11-05T16:46:23.270Z,76.90
2017-11-05T16:48:50.661Z,77.82
2017-11-05T16:51:18.046Z,77.65
2017-11-05T16:53:45.439Z,77.22
2017-11-05T16:56:12.859Z,77.66
2017-11-05T16:58:40.255Z,77.59
2017-11-05T17:01:07.639Z,77.80
2017-11-05T17:03:35.028Z,77.70
2017-11-05T17:06:02.483Z,77.82
2017-11-05T17:08:29.875Z,78.19
2017-11-05T17:10:57.262Z,77.84
2017-11-05T17:13:24.665Z,78.15
2017-11-05T17:15:52.103Z,78.79
2017-11-05T17:18:19.554Z,78.48
2017-11-05T17:20:46.939Z,78.29
2017-11-05T17:23:14.336Z,78.46
2017-11-05T17:25:41.861Z,77.92
2017-11-05T17:28:09.245Z,77.51
2017-11-05T17:30:36.623Z,77.49
2017-11-05T17:33:04.091Z,77.20
2017-11-05T17:35:31.547Z,77.92
2017-11-05T17:37:59.002Z,78.23
2017-11-05T17:40:26.382Z,77.76
2017-11-05T17:42:53.776Z,78.50
2017-11-05T17:45:21.173Z,77.61
2017-11-05T17:47:48.571Z,77.96
2017-11-05T17:50:16.001Z,77.54
2017-11-05T17:52:43.382Z,78.68
2017-11-05T17:55:10.791Z,78.26
2017-11-05T17:57:38.180Z,78.70
2017-11-05T18:00:05.560Z,78.70
2017-11-05T18:02:32.946Z,78.69
2017-11-05T18:05:00.342Z,78.57
2017-11-05T18:07:27.766Z,78.39
2017-11-05T18:09:55.234Z,78.27
2017-11-05T18:12:22.611Z,78.36
2017-11-05T18:14:50.040Z,77.96
2017-11-05T18:17:17.439Z,77.55
2017-11-05T18:19:44.868Z,77.10
2017-11-05T18:22:12.236Z,77.56
2017-11-05T18:24:39.626Z,76.98
2017-11-05T18:27:07.009Z,77.72
2017-11-05T18:29:34.398Z,78.37
2017-11-05T18:32:01.783Z,77.78
2017-11-05T18:34:29.192Z,77.34
2017-11-05T18:36:56.586Z,77.51
2017-11-05T18:39:24.075Z,76.99
2017-11-05T18:41:51.469Z,76.71
2017-11-05T18:44:18.861Z,76.81
2017-11-05T18:46:46.247Z,76.80
2017-11-05T18:49:13.636Z,77.35
2017-11-05T18:51:41.127Z,77.15
2017-11-05T18:54:08.507Z,77.87
2017-11-05T18:56:35.976Z,77.82
2017-11-05T18:59:03.357Z,78.30
2017-11-05T19:01:30.751Z,78.12
2017-11-05T19:03:58.148Z,79.28
2017-11-05T19:06:25.560Z,79.50
2017-11-05T19:08:52.956Z,79.00
2017-11-05T19:11:20.332Z,78.53
2017-11-05T19:13:47.722Z,78.92
2017-11-05T19:16:15.111Z,78.73
2017-11-05T19:18:42.497Z,79.29
2017-11-05T19:21:09.883Z,79.74
2017-11-05T19:23:37.339Z,79.38
2017-11-05T19:26:04.799Z,78.78
2017-11-05T19:28:32.184Z,78.20
2017-11-05T19:30:59.579Z,78.43
2017-11-05T19:33:27.014Z,78.87
2017-11-05T19:35:54.412Z,78.24
2017-11-05T19:38:21.791Z,77.73
2017-11-05T19:40:49.158Z,78.23
2017-11-05T19:43:16.556Z,77.59
2017-11-05T19:45:43.931Z,78.04
2017-11-05T19:48:11.353Z,78.96
2017-11-05T19:50:38.722Z,78.58
2017-11-05T19:53:06.114Z,78.33
2017-11-05T19:55:33.522Z,78.36
2017-11-05T19:58:00.918Z,78.28
2017-11-05T20:00:28.310Z,79.18
2017-11-05T20:02:55.699Z,80.17
2017-11-05T20:05:23.139Z,79.78
2017-11-05T20:07:50.528Z,79.18
2017-11-05T20:10:17.947Z,78.74
2017-11-05T20:12:45.343Z,78.66
2017-11-05T20:15:12.759Z,80.73
2017-11-05T20:17:40.149Z,80.43
2017-11-05T20:20:07.530Z,80.83
2017-11-05T20:22:34.947Z,80.17
2017-11-05T20:25:02.326Z,79.70
2017-11-05T20:27:29.715Z,80.05
2017-11-05T20:29:57.106Z,80.22
2017-11-05T20:32:24.486Z,79.82
2017-11-05T20:34:51.879Z,80.22
2017-11-05T20:37:19.353Z,80.12
2017-11-05T20:39:46.747Z,80.50
2017-11-05T20:42:14.132Z,80.12
2017-11-05T20:44:41.524Z,81.16
2017-11-05T20:47:09.821Z,82.05
2017-11-05T20:49:37.194Z,81.91
2017-11-05T20:52:04.607Z,81.61
2017-11-05T20:54:31.995Z,82.07
2017-11-05T20:56:59.380Z,82.17
2017-11-05T20:59:26.776Z,82.77
2017-11-05T21:01:54.230Z,82.13
2017-11-05T21:04:21.686Z,82.77
2017-11-05T21:06:49.061Z,82.85
2017-11-05T21:09:16.494Z,82.77
2017-11-05T21:11:43.895Z,82.63
2017-11-05T21:14:11.283Z,82.83
2017-11-05T21:16:38.676Z,82.55
2017-11-05T21:19:06.050Z,82.36
2017-11-05T21:21:33.436Z,81.88
2017-11-05T21:24:00.821Z,82.06
2017-11-05T21:26:28.219Z,82.60
2017-11-05T21:28:55.598Z,82.62
2017-11-05T21:31:23.026Z,81.96
2017-11-05T21:33:50.422Z,81.98
2017-11-05T21:36:17.811Z,81.68
2017-11-05T21:38:45.193Z,82.31
2017-11-05T21:41:12.650Z,81.76
2017-11-05T21:43:40.051Z,82.36
2017-11-05T21:46:07.431Z,82.47
2017-11-05T21:48:34.812Z,83.05
2017-11-05T21:51:02.290Z,82.81
2017-11-05T21:53:29.674Z,82.73
2017-11-05T21:55:57.114Z,82.69
2017-11-05T21:58:24.498Z,82.27
2017-11-05T22:00:51.911Z,81.95
2017-11-05T22:03:19.373Z,81.75
2017-11-05T22:05:46.765Z,80.88
2017-11-05T22:08:14.141Z,82.05
2017-11-05T22:10:41.530Z,81.27
2017-11-05T22:13:08.924Z,81.24
2017-11-05T22:15:36.403Z,81.74
2017-11-05T22:18:03.800Z,82.44
2017-11-05T22:20:31.221Z,82.56
2017-11-05T22:22:58.617Z,82.72
2017-11-05T22:25:26.005Z,82.84
2017-11-05T22:27:53.390Z,82.83
2017-11-05T22:30:20.783Z,82.67
2017-11-05T22:32:48.175Z,82.17
2017-11-05T22:35:15.551Z,82.54
2017-11-05T22:37:42.955Z,82.33
2017-11-05T22:40:10.340Z,82.57
2017-11-05T22:42:37.715Z,82.53
2017-11-05T22:45:05.174Z,82.74
2017-11-05T22:47:32.559Z,82.80
2017-11-05T22:49:59.944Z,82.79
2017-11-05T22:52:27.334Z,82.53
2017-11-05T22:54:54.755Z,82.66
2017-11-05T22:57:22.138Z,83.63
2017-11-05T22:59:49.522Z,83.95
2017-11-05T23:02:16.904Z,83.82
2017-11-05T23:04:44.291Z,83.84
2017-11-05T23:07:11.687Z,83.65
2017-11-05T23:09:39.119Z,83.69
2017-11-05T23:12:06.499Z,83.89
2017-11-05T23:14:33.910Z,82.84
2017-11-05T23:17:01.285Z,82.67
2017-11-05T23:19:28.744Z,82.77
2017-11-05T23:21:56.126Z,82.15
2017-11-05T23:24:23.539Z,83.30
2017-11-05T23:26:50.915Z,83.10
2017-11-05T23:29:18.355Z,84.11
2017-11-05T23:31:45.810Z,84.17
2017-11-05T23:34:13.274Z,84.32
2017-11-05T23:36:40.666Z,84.50
2017-11-05T23:39:08.085Z,83.59
2017-11-05T23:41:35.474Z,83.88
2017-11-05T23:44:02.854Z,82.89
2017-11-05T23:46:30.249Z,83.64
2017-11-05T23:48:57.630Z,83.28
2017-11-05T23:51:25.019Z,83.31
2017-11-05T23:53:52.396Z,83.83
2017-11-05T23:56:19.870Z,83.56
2017-11-05T23:58:47.254Z,82.75
